Aviation Digital Data Service (ADDS)

Output produced by METARs form (2056 UTC 01 December 2021)
found at http://aviationweather.gov/metar/data/
 
KLBX 011720Z 0118/0218 20008KT P6SM FEW030 SCT250 
     FM020100 VRB02KT P6SM SCT250 
     FM020400 00000KT 4SM BR FEW003 SCT250 
     FM020700 00000KT 1/4SM FG VV001 
     FM021500 20005KT P6SM SCT015 SCT250